< < Back
Terminal Aerodrome Forecast


Current Version              Previous Versions:   1  2  3  4  5  6  7  8  9  

Terminal Aerodrome Forecast

743
FTUS42 KTAE 191700
TAFVLD
TAF
KVLD 191725Z 1918/2018 08006KT P6SM BKN150
     FM200500 00000KT P6SM BKN050 OVC120
     FM201200 06004KT P6SM OVC050=

Latest METAR

340
SAUS70 KWBC 200800 RRJ
MTRVLD
METAR KVLD 200753Z AUTO 04003KT 10SM -RA FEW050 FEW080 OVC095 10/09
A3011 RMK AO2 RAE0654B53 SLP205 P0000 T01000089


USA.gov is the U.S. government's official web portal to all federal, state and local government web resources and services.